SKBO/BOG METAR and TAF weather

Enter ICAO airport designator
Station Type Date Time Source
SKBO METAR 2022/01/29 02:00 UTC NOAA

SKBO 290200Z 30007KT 9999 FEW023 SCT080 13/08 Q1026 NOSIG RMK A3031


Station Type Date Time Source
SKBO Decoded METAR 2022/01/29 02:00 UTC NOAA

Bogota / Eldorado, Colombia (SKBO) 04-43N 074-09W 2548M
Jan 28, 2022 - 09:00 PM EST / 2022.01.29 0200 UTC
Wind: from the WNW (300 degrees) at 8 MPH (7 KT):0
Visibility: greater than 7 mile(s):0
Sky conditions: partly cloudy
Temperature: 55 F (13 C)
Dew Point: 46 F (8 C)
Relative Humidity: 71%
Pressure (altimeter): 30.30 in. Hg (1026 hPa)
ob: SKBO 290200Z 30007KT 9999 FEW023 SCT080 13/08 Q1026 NOSIG RMK A3031
cycle: 2

Station Type Date Time Source
SKBO TAF 2022/01/28 18:44 UTC NOAA

TAF SKBO 281630Z 2818/2918 28010KT 9999 SCT020
TEMPO 2820/2823 SCT017TCU
BECMG 2902/2904 02004KT
BECMG 2914/2916 28012KT TX21/2818Z TN09/2910Z

Example: see airport list